Mancos, CO (81328)

11:27 PM MST on December 03, 2016 (GMT -0700)
Mormon Reservoir | | Change Station

Elev 7024 ft 37.18 °N, 108.15 °W | Updated 6 seconds ago

Clear
Clear
16.3 °F
Feels Like 16 °F
N
0.0
Wind Variable Wind from WNW
Gusts 1.0 mph

Today
High -- | Low -- °F
--% Chance of Precip.
Yesterday
High -- | Low -- °F
Precip. -- in
Pressure 30.18 in
Visibility 10.0 miles
Clouds Clear
Windchill 16 °F
Dew Point 11 °F
Humidity 80%
Rainfall 0.00 in
Snow Depth Not available.
7:11 AM 4:55 PM
Waxing Crescent, 20% visible
METAR KCEZ 040553Z AUTO 08006KT 10SM CLR M07/M11 A3013 RMK AO2 SLP219 T10671106 10022 21067 51004
Pressure 30.18 in
Visibility 10.0 miles
Clouds Clear
Windchill 16 °F
Dew Point 11 °F
Humidity 80%
Rainfall 0.00 in
Snow Depth Not available.
7:11 AM 4:55 PM
Waxing Crescent, 20% visible
METAR KCEZ 040553Z AUTO 08006KT 10SM CLR M07/M11 A3013 RMK AO2 SLP219 T10671106 10022 21067 51004

10-Day Weather Forecast

Almanac

Astronomy

Dec. 03, 2016 Rise Set
Actual Time
Civil Twilight
Nautical Twilight
Astronomical Twilight
Moon
Length of Visible Light
Length of Day
Tomorrow will be .
, % of the Moon is Illuminated

Today's Extremes

State Highs State Lows

Community

WunderPhotos

Upload Photos

1,955,587 photos uploaded!

WunderBlog® & News

Nearby

Air Quality

  Air Quality AQ Index Pollutant
Not available.

Snow Depth

Station Depth Elevation

Earthquake Activity

City Distance Mag. Time & Date
Minimum magnitude displayed is 2.5.

Coastal Water Temperatures

Place Temperature

Stations

Nearby Weather Stations

Station Location Temp. Windchill Dew Point Humidity Wind Precip. Elev Updated Type
                   

Watches & Warnings

There are currently no watches in effect.